createdAt,value
2022-11-01T00:02:14.707Z,96282.69
2022-11-01T00:04:42.240Z,96277.88
2022-11-01T00:07:09.770Z,96278.47
2022-11-01T00:09:37.314Z,96275.25
2022-11-01T00:12:05.081Z,96286.72
2022-11-01T00:14:33.600Z,96282.41
2022-11-01T00:17:01.033Z,96285.69
2022-11-01T00:19:28.608Z,96280.06
2022-11-01T00:21:56.040Z,96279.06
2022-11-01T00:24:23.710Z,96279.66
2022-11-01T00:26:51.219Z,96277.84
2022-11-01T00:29:18.814Z,96278.78
2022-11-01T00:31:46.198Z,96279.06
2022-11-01T00:34:16.400Z,96278.84
2022-11-01T00:36:44.054Z,96281.84
2022-11-01T00:39:16.634Z,96276.25
2022-11-01T00:41:44.215Z,96276.56
2022-11-01T00:44:11.736Z,96267.41
2022-11-01T00:46:39.202Z,96270.41
2022-11-01T00:49:08.746Z,96280.78
2022-11-01T00:51:36.203Z,96282.69
2022-11-01T00:54:05.924Z,96275.66
2022-11-01T00:56:33.341Z,96286.47
2022-11-01T00:59:03.009Z,96285.97
2022-11-01T01:01:32.546Z,96282.47
2022-11-01T01:04:00.260Z,96280.84
2022-11-01T01:06:27.795Z,96279.25
2022-11-01T01:08:58.924Z,96280.63
2022-11-01T01:11:28.275Z,96281.72
2022-11-01T01:13:55.937Z,96285.06
2022-11-01T01:16:23.488Z,96282.66
2022-11-01T01:18:51.663Z,96285.66
2022-11-01T01:21:20.331Z,96286.22
2022-11-01T01:23:48.759Z,96281.31
2022-11-01T01:26:17.573Z,96282.44
2022-11-01T01:28:45.122Z,96281.09
2022-11-01T01:31:14.022Z,96283.81
2022-11-01T01:33:41.712Z,96274.41
2022-11-01T01:36:09.720Z,96276.09
2022-11-01T01:38:37.208Z,96275.00
2022-11-01T01:41:23.717Z,96272.88
2022-11-01T01:43:51.389Z,96276.09
2022-11-01T01:46:21.423Z,96274.56
2022-11-01T01:48:52.900Z,96274.56
2022-11-01T01:51:24.708Z,96281.34
2022-11-01T01:53:54.073Z,96276.53
2022-11-01T01:56:28.416Z,96278.22
2022-11-01T01:59:05.263Z,96283.16
2022-11-01T02:01:35.335Z,96277.50
2022-11-01T02:04:04.302Z,96274.06
2022-11-01T02:06:32.656Z,96277.88
2022-11-01T02:09:01.965Z,96287.94
2022-11-01T02:11:30.543Z,96283.09
2022-11-01T02:13:58.797Z,96283.66
2022-11-01T02:16:39.040Z,96284.25
2022-11-01T02:19:34.664Z,96284.88
2022-11-01T02:22:20.428Z,96283.84
2022-11-01T02:25:13.130Z,96284.41
2022-11-01T02:27:44.423Z,96276.91
2022-11-01T02:30:22.007Z,96283.19
2022-11-01T02:32:49.381Z,96284.00
2022-11-01T02:35:59.131Z,96286.75
2022-11-01T02:38:29.435Z,96285.16
2022-11-01T02:41:03.585Z,96275.75
2022-11-01T02:43:41.309Z,96284.16
2022-11-01T02:46:28.081Z,96285.25
2022-11-01T02:48:56.960Z,96280.41
2022-11-01T02:51:26.914Z,96278.59
2022-11-01T02:53:54.267Z,96277.78
2022-11-01T02:56:22.814Z,96274.56
2022-11-01T02:58:51.893Z,96273.53
2022-11-01T03:01:23.020Z,96281.66
2022-11-01T03:03:52.356Z,96279.53
2022-11-01T03:06:39.080Z,96285.53
2022-11-01T03:09:10.141Z,96289.06
2022-11-01T03:11:40.699Z,96287.44
2022-11-01T03:14:26.255Z,96295.84
2022-11-01T03:17:00.655Z,96301.03
2022-11-01T03:19:52.034Z,96294.59
2022-11-01T03:22:29.028Z,96297.00
2022-11-01T03:25:35.344Z,96303.81
2022-11-01T03:28:21.913Z,96308.41
2022-11-01T03:31:03.643Z,96305.75
2022-11-01T03:33:33.244Z,96296.56
2022-11-01T03:36:13.465Z,96311.16
2022-11-01T03:38:46.336Z,96313.34
2022-11-01T03:41:16.657Z,96308.75
2022-11-01T03:43:44.082Z,96308.53
2022-11-01T03:46:13.816Z,96305.31
2022-11-01T03:48:41.597Z,96297.72
2022-11-01T03:51:11.112Z,96295.06
2022-11-01T03:53:38.521Z,96313.72
2022-11-01T03:56:07.519Z,96311.31
2022-11-01T03:58:45.179Z,96311.31
2022-11-01T04:01:14.787Z,96308.88
2022-11-01T04:03:42.557Z,96304.84
2022-11-01T04:06:10.237Z,96310.25
2022-11-01T04:08:37.794Z,96300.84
2022-11-01T04:11:05.347Z,96305.97
2022-11-01T04:13:32.951Z,96309.25
2022-11-01T04:16:19.177Z,96307.63
2022-11-01T04:19:11.253Z,96314.66
2022-11-01T04:21:38.900Z,96311.44
2022-11-01T04:24:08.258Z,96309.00
2022-11-01T04:26:35.923Z,96301.78
2022-11-01T04:29:03.604Z,96311.19
2022-11-01T04:31:36.238Z,96307.19
2022-11-01T04:34:04.938Z,96307.19
2022-11-01T04:36:33.438Z,96311.78
2022-11-01T04:39:00.895Z,96309.38
2022-11-01T04:41:29.720Z,96310.47
2022-11-01T04:43:59.768Z,96315.88
2022-11-01T04:46:31.790Z,96308.31
2022-11-01T04:48:59.397Z,96307.53
2022-11-01T04:51:27.039Z,96315.91
2022-11-01T04:53:54.550Z,96319.72
2022-11-01T04:56:22.138Z,96311.66
2022-11-01T04:58:49.681Z,96307.88
2022-11-01T05:01:17.200Z,96317.06
2022-11-01T05:03:44.874Z,96315.47
2022-11-01T05:06:14.377Z,96317.09
2022-11-01T05:08:41.743Z,96322.50
2022-11-01T05:11:09.422Z,96317.38
2022-11-01T05:13:36.848Z,96321.19
2022-11-01T05:16:21.101Z,96319.34
2022-11-01T05:18:48.903Z,96323.66
2022-11-01T05:21:18.163Z,96333.94
2022-11-01T05:23:51.491Z,96332.31
2022-11-01T05:26:19.687Z,96331.31
2022-11-01T05:28:48.069Z,96332.09
2022-11-01T05:31:15.488Z,96332.41
2022-11-01T05:33:45.025Z,96336.47
2022-11-01T05:36:12.511Z,96334.84
2022-11-01T05:38:41.028Z,96337.84
2022-11-01T05:41:08.505Z,96338.13
2022-11-01T05:43:36.982Z,96335.19
2022-11-01T05:46:05.732Z,96347.59
2022-11-01T05:48:34.001Z,96347.59
2022-11-01T05:51:01.371Z,96355.19
2022-11-01T05:53:32.602Z,96357.38
2022-11-01T05:56:00.089Z,96359.00
2022-11-01T05:58:31.660Z,96350.69
2022-11-01T06:00:59.900Z,96356.31
2022-11-01T06:03:27.684Z,96360.09
2022-11-01T06:05:57.789Z,96361.72
2022-11-01T06:08:25.952Z,96365.50
2022-11-01T06:11:12.606Z,96371.50
2022-11-01T06:13:39.939Z,96366.09
2022-11-01T06:16:08.064Z,96369.88
2022-11-01T06:18:35.573Z,96383.63
2022-11-01T06:21:05.062Z,96381.72
2022-11-01T06:23:32.456Z,96373.63
2022-11-01T06:26:01.474Z,96382.53
2022-11-01T06:28:28.934Z,96382.25
2022-11-01T06:31:00.966Z,96384.94
2022-11-01T06:33:29.964Z,96387.38
2022-11-01T06:35:58.558Z,96385.19
2022-11-01T06:38:26.380Z,96381.69
2022-11-01T06:40:56.824Z,96396.22
2022-11-01T06:43:24.326Z,96388.66
2022-11-01T06:45:51.823Z,96391.31
2022-11-01T06:48:19.367Z,96397.25
2022-11-01T06:50:47.021Z,96393.47
2022-11-01T06:53:14.524Z,96396.09
2022-11-01T06:55:42.164Z,96394.72
2022-11-01T06:58:09.640Z,96389.03
2022-11-01T07:00:37.248Z,96391.47
2022-11-01T07:03:10.515Z,96387.63
2022-11-01T07:05:38.936Z,96385.19
2022-11-01T07:08:09.155Z,96384.59
2022-11-01T07:10:38.307Z,96385.63
2022-11-01T07:13:07.451Z,96379.13
2022-11-01T07:15:35.046Z,96384.19
2022-11-01T07:18:04.792Z,96376.84
2022-11-01T07:20:41.562Z,96381.16
2022-11-01T07:23:15.543Z,96380.81
2022-11-01T07:25:43.669Z,96378.88
2022-11-01T07:28:11.270Z,96383.69
2022-11-01T07:30:39.441Z,96383.63
2022-11-01T07:33:07.225Z,96376.84
2022-11-01T07:35:35.702Z,96374.88
2022-11-01T07:38:08.013Z,96382.41
2022-11-01T07:40:40.596Z,96382.84
2022-11-01T07:43:09.317Z,96380.09
2022-11-01T07:45:37.006Z,96381.91
2022-11-01T07:48:10.261Z,96379.41
2022-11-01T07:50:38.794Z,96380.41
2022-11-01T07:53:08.997Z,96377.63
2022-11-01T07:55:36.718Z,96376.97
2022-11-01T07:58:05.569Z,96378.53
2022-11-01T08:00:33.388Z,96368.72
2022-11-01T08:03:09.699Z,96384.28
2022-11-01T08:05:42.114Z,96370.16
2022-11-01T08:08:10.365Z,96368.41
2022-11-01T08:10:39.295Z,96372.38
2022-11-01T08:13:07.874Z,96369.31
2022-11-01T08:15:36.022Z,96372.75
2022-11-01T08:18:03.880Z,96370.75
2022-11-01T08:20:31.953Z,96367.34
2022-11-01T08:22:59.588Z,96371.59
2022-11-01T08:25:27.039Z,96365.56
2022-11-01T08:27:54.541Z,96365.41
2022-11-01T08:30:22.736Z,96358.78
2022-11-01T08:32:58.716Z,96359.72
2022-11-01T08:35:26.918Z,96349.59
2022-11-01T08:37:54.813Z,96351.81
2022-11-01T08:40:22.749Z,96351.78
2022-11-01T08:42:50.334Z,96359.44
2022-11-01T08:45:17.991Z,96355.91
2022-11-01T08:47:45.788Z,96358.66
2022-11-01T08:50:15.851Z,96348.59
2022-11-01T08:52:43.428Z,96351.75
2022-11-01T08:55:11.659Z,96347.09
2022-11-01T08:57:39.196Z,96349.47
2022-11-01T09:00:07.300Z,96337.13
2022-11-01T09:02:34.947Z,96337.88
2022-11-01T09:05:05.269Z,96335.75
2022-11-01T09:07:34.805Z,96333.78
2022-11-01T09:10:02.454Z,96330.34
2022-11-01T09:12:29.913Z,96337.47
2022-11-01T09:14:57.539Z,96328.06
2022-11-01T09:17:24.953Z,96328.94
2022-11-01T09:19:52.628Z,96323.34
2022-11-01T09:22:20.045Z,96329.81
2022-11-01T09:24:47.580Z,96323.41
2022-11-01T09:27:16.445Z,96319.59
2022-11-01T09:29:46.576Z,96327.75
2022-11-01T09:32:17.737Z,96314.75
2022-11-01T09:34:45.451Z,96311.66
2022-11-01T09:37:12.807Z,96318.69
2022-11-01T09:39:40.296Z,96317.88
2022-11-01T09:42:32.503Z,96311.41
2022-11-01T09:45:16.189Z,96317.72
2022-11-01T09:47:46.207Z,96307.06
2022-11-01T09:50:30.195Z,96300.84
2022-11-01T09:52:57.854Z,96295.78
2022-11-01T09:55:56.306Z,96291.97
2022-11-01T09:58:30.283Z,96296.66
2022-11-01T10:01:07.158Z,96281.56
2022-11-01T10:03:51.928Z,96272.25
2022-11-01T10:06:25.313Z,96285.91
2022-11-01T10:09:14.250Z,96273.19
2022-11-01T10:11:54.478Z,96268.44
2022-11-01T10:14:45.681Z,96270.63
2022-11-01T10:17:15.585Z,96272.56
2022-11-01T10:19:47.368Z,96257.16
2022-11-01T10:22:28.381Z,96254.59
2022-11-01T10:25:04.867Z,96250.09
2022-11-01T10:27:47.326Z,96249.13
2022-11-01T10:30:16.702Z,96242.38
2022-11-01T10:32:54.980Z,96239.78
2022-11-01T10:35:30.688Z,96231.81
2022-11-01T10:38:49.654Z,96233.94
2022-11-01T10:41:10.477Z,96226.03
2022-11-01T10:43:43.382Z,96227.03
2022-11-01T10:46:14.779Z,96222.09
2022-11-01T10:48:45.499Z,96211.16
2022-11-01T10:51:15.809Z,96211.66
2022-11-01T10:53:48.996Z,96218.38
2022-11-01T10:56:19.945Z,96207.47
2022-11-01T10:59:01.645Z,96210.41
2022-11-01T11:01:34.700Z,96206.84
2022-11-01T11:04:04.026Z,96202.53
2022-11-01T11:06:33.764Z,96200.84
2022-11-01T11:09:02.954Z,96198.00
2022-11-01T11:11:40.885Z,96192.00
2022-11-01T11:14:09.151Z,96194.34
2022-11-01T11:16:53.708Z,96186.78
2022-11-01T11:19:33.449Z,96185.09
2022-11-01T11:22:02.215Z,96183.47
2022-11-01T11:24:38.176Z,96173.44
2022-11-01T11:27:33.767Z,96171.22
2022-11-01T11:30:07.696Z,96171.25
2022-11-01T11:32:39.811Z,96171.91
2022-11-01T11:35:14.123Z,96162.97
2022-11-01T11:38:00.939Z,96161.75
2022-11-01T11:40:42.172Z,96158.88
2022-11-01T11:43:21.790Z,96159.72
2022-11-01T11:46:10.857Z,96156.63
2022-11-01T11:49:05.636Z,96152.69
2022-11-01T11:51:35.546Z,96153.28
2022-11-01T11:54:12.901Z,96150.69
2022-11-01T11:56:40.319Z,96149.38
2022-11-01T11:59:20.449Z,96143.72
2022-11-01T12:01:48.335Z,96134.66
2022-11-01T12:04:17.096Z,96140.25
2022-11-01T12:06:45.208Z,96140.81
2022-11-01T12:09:46.692Z,96137.34
2022-11-01T12:12:35.111Z,96142.06
2022-11-01T12:15:03.956Z,96130.88
2022-11-01T12:17:39.456Z,96132.97
2022-11-01T12:20:17.756Z,96127.69
2022-11-01T12:22:50.759Z,96121.47
2022-11-01T12:25:19.954Z,96123.94
2022-11-01T12:28:14.131Z,96117.50
2022-11-01T12:30:41.915Z,96112.59
2022-11-01T12:33:22.671Z,96112.72
2022-11-01T12:35:52.800Z,96105.16
2022-11-01T12:38:39.399Z,96104.78
2022-11-01T12:41:37.450Z,96101.88
2022-11-01T12:44:29.584Z,96098.94
2022-11-01T12:47:15.629Z,96100.63
2022-11-01T12:49:52.086Z,96101.09
2022-11-01T12:52:24.985Z,96097.56
2022-11-01T12:54:58.762Z,96088.47
2022-11-01T12:57:26.392Z,96099.22
2022-11-01T12:59:54.039Z,96092.91
2022-11-01T13:02:34.224Z,96088.16
2022-11-01T13:05:11.745Z,96088.03
2022-11-01T13:08:03.412Z,96095.25
2022-11-01T13:13:48.416Z,96078.97
2022-11-01T13:16:20.109Z,96080.88
2022-11-01T13:19:38.544Z,96083.31
2022-11-01T13:22:13.836Z,96078.16
2022-11-01T13:25:22.743Z,96083.38
2022-11-01T13:28:08.647Z,96084.94
2022-11-01T13:30:38.250Z,96075.28
2022-11-01T13:33:17.874Z,96068.13
2022-11-01T13:35:48.663Z,96081.94
2022-11-01T13:38:36.266Z,96078.72
2022-11-01T13:41:19.840Z,96075.91
2022-11-01T13:43:52.107Z,96071.91
2022-11-01T13:46:44.311Z,96074.31
2022-11-01T13:49:42.889Z,96072.00
2022-11-01T13:52:19.926Z,96070.06
2022-11-01T13:54:50.716Z,96070.59
2022-11-01T13:57:20.924Z,96078.22
2022-11-01T13:59:56.115Z,96071.63
2022-11-01T14:02:23.871Z,96070.25
2022-11-01T14:05:03.188Z,96067.38
2022-11-01T14:07:36.646Z,96073.97
2022-11-01T14:10:20.583Z,96065.56
2022-11-01T14:12:56.796Z,96071.78
2022-11-01T14:15:28.764Z,96076.38
2022-11-01T14:18:10.927Z,96078.94
2022-11-01T14:20:40.415Z,96072.75
2022-11-01T14:23:27.823Z,96068.13
2022-11-01T14:26:20.382Z,96070.97
2022-11-01T14:28:49.831Z,96069.03
2022-11-01T14:31:19.172Z,96069.47
2022-11-01T14:33:49.263Z,96078.53
2022-11-01T14:36:19.633Z,96069.00
2022-11-01T14:38:53.072Z,96066.94
2022-11-01T14:41:22.970Z,96070.84
2022-11-01T14:43:56.165Z,96075.88
2022-11-01T14:46:27.214Z,96066.69
2022-11-01T14:49:11.156Z,96073.28
2022-11-01T14:51:42.463Z,96073.16
2022-11-01T14:54:18.574Z,96080.91
2022-11-01T14:56:52.152Z,96082.31
2022-11-01T14:59:27.172Z,96074.25
2022-11-01T15:02:02.412Z,96075.72
2022-11-01T15:04:40.641Z,96077.91
2022-11-01T15:07:27.735Z,96073.38
2022-11-01T15:10:06.217Z,96064.53
2022-11-01T15:12:35.820Z,96071.47
2022-11-01T15:15:04.022Z,96074.88
2022-11-01T15:17:34.028Z,96065.19
2022-11-01T15:20:04.270Z,96066.97
2022-11-01T15:22:33.336Z,96071.91
2022-11-01T15:25:03.169Z,96078.03
2022-11-01T15:27:42.961Z,96069.91
2022-11-01T15:30:19.913Z,96072.09
2022-11-01T15:32:51.031Z,96073.03
2022-11-01T15:35:26.103Z,96074.84
2022-11-01T15:37:54.646Z,96075.81
2022-11-01T15:40:34.930Z,96072.09
2022-11-01T15:43:04.105Z,96080.50
2022-11-01T15:45:33.719Z,96083.06
2022-11-01T15:48:07.051Z,96078.53
2022-11-01T15:50:37.831Z,96086.19
2022-11-01T15:53:09.443Z,96085.97
2022-11-01T15:55:40.611Z,96091.28
2022-11-01T15:58:13.580Z,96086.34
2022-11-01T16:00:44.854Z,96088.53
2022-11-01T16:03:20.739Z,96083.59
2022-11-01T16:06:10.931Z,96091.25
2022-11-01T16:09:01.764Z,96087.91
2022-11-01T16:11:30.780Z,96088.44
2022-11-01T16:14:05.521Z,96091.81
2022-11-01T16:16:55.071Z,96100.25
2022-11-01T16:19:36.227Z,96108.31
2022-11-01T16:22:05.496Z,96112.03
2022-11-01T16:24:34.217Z,96115.78
2022-11-01T16:27:06.253Z,96123.47
2022-11-01T16:29:46.833Z,96118.16
2022-11-01T16:32:20.109Z,96118.34
2022-11-01T16:34:47.574Z,96121.28
2022-11-01T16:37:25.496Z,96132.00
2022-11-01T16:39:53.697Z,96126.34
2022-11-01T16:42:22.514Z,96127.31
2022-11-01T16:44:55.381Z,96133.75
2022-11-01T16:47:23.016Z,96135.16
2022-11-01T16:49:52.756Z,96127.88
2022-11-01T16:52:20.244Z,96133.16
2022-11-01T16:54:51.210Z,96140.75
2022-11-01T16:57:26.931Z,96141.34
2022-11-01T16:59:54.807Z,96144.22
2022-11-01T17:02:25.936Z,96151.09
2022-11-01T17:05:20.780Z,96149.25
2022-11-01T17:07:48.297Z,96151.78
2022-11-01T17:10:23.235Z,96148.81
2022-11-01T17:12:50.604Z,96152.50
2022-11-01T17:15:19.628Z,96145.56
2022-11-01T17:17:48.457Z,96150.44
2022-11-01T17:20:22.869Z,96147.03
2022-11-01T17:22:51.805Z,96158.25
2022-11-01T17:25:20.353Z,96155.25
2022-11-01T17:27:51.129Z,96162.13
2022-11-01T17:30:19.516Z,96163.38
2022-11-01T17:32:47.035Z,96165.19
2022-11-01T17:35:15.337Z,96161.81
2022-11-01T17:37:42.889Z,96159.66
2022-11-01T17:40:21.445Z,96156.69
2022-11-01T17:42:48.865Z,96163.97
2022-11-01T17:45:16.573Z,96168.06
2022-11-01T17:47:43.995Z,96169.75
2022-11-01T17:50:16.245Z,96169.19
2022-11-01T17:52:43.703Z,96168.59
2022-11-01T17:55:11.796Z,96170.75
2022-11-01T17:57:43.543Z,96164.25
2022-11-01T18:00:11.745Z,96168.63
2022-11-01T18:02:43.461Z,96170.78
2022-11-01T18:05:11.363Z,96170.19
2022-11-01T18:07:43.763Z,96173.81
2022-11-01T18:10:20.112Z,96167.69
2022-11-01T18:13:07.803Z,96168.09
2022-11-01T18:15:35.168Z,96175.84
2022-11-01T18:18:38.775Z,96172.50
2022-11-01T18:21:39.112Z,96178.53
2022-11-01T18:24:16.030Z,96168.44
2022-11-01T18:26:46.063Z,96177.31
2022-11-01T18:29:20.974Z,96169.97
2022-11-01T18:32:03.585Z,96176.09
2022-11-01T18:34:40.355Z,96173.56
2022-11-01T18:37:26.047Z,96174.91
2022-11-01T18:40:03.057Z,96176.19
2022-11-01T18:42:30.896Z,96177.66
2022-11-01T18:45:00.344Z,96182.53
2022-11-01T18:47:33.442Z,96180.31
2022-11-01T18:50:03.935Z,96198.16
2022-11-01T18:52:33.141Z,96184.19
2022-11-01T18:55:00.651Z,96192.25
2022-11-01T18:57:28.986Z,96196.72
2022-11-01T18:59:56.436Z,96187.94
2022-11-01T19:02:27.311Z,96198.69
2022-11-01T19:05:10.915Z,96198.41
2022-11-01T19:08:05.019Z,96199.53
2022-11-01T19:10:28.395Z,96198.91
2022-11-01T19:12:56.319Z,96191.88
2022-11-01T19:15:25.991Z,96205.69
2022-11-01T19:17:58.816Z,96210.97
2022-11-01T19:20:28.519Z,96204.91
2022-11-01T19:23:05.086Z,96209.88
2022-11-01T19:25:34.789Z,96216.13
2022-11-01T19:28:13.061Z,96218.69
2022-11-01T19:30:40.479Z,96216.59
2022-11-01T19:33:37.216Z,96226.56
2022-11-01T19:36:17.356Z,96232.03
2022-11-01T19:38:45.732Z,96222.41
2022-11-01T19:41:16.087Z,96230.09
2022-11-01T19:43:43.609Z,96229.97
2022-11-01T19:46:17.006Z,96232.22
2022-11-01T19:48:44.277Z,96234.28
2022-11-01T19:51:17.070Z,96227.56
2022-11-01T19:53:45.486Z,96234.16
2022-11-01T19:56:22.631Z,96240.22
2022-11-01T19:59:00.600Z,96238.47
2022-11-01T20:01:34.813Z,96239.13
2022-11-01T20:04:27.623Z,96236.06
2022-11-01T20:07:01.971Z,96241.06
2022-11-01T20:09:36.156Z,96252.59
2022-11-01T20:12:03.775Z,96241.31
2022-11-01T20:14:34.261Z,96245.19
2022-11-01T20:17:02.421Z,96249.66
2022-11-01T20:19:31.418Z,96242.28
2022-11-01T20:22:01.583Z,96247.75
2022-11-01T20:24:30.758Z,96245.16
2022-11-01T20:26:59.773Z,96244.19
2022-11-01T20:29:27.414Z,96252.53
2022-11-01T20:31:54.886Z,96251.72
2022-11-01T20:34:22.519Z,96246.09
2022-11-01T20:37:14.833Z,96251.41
2022-11-01T20:39:38.138Z,96252.34
2022-11-01T20:42:08.140Z,96248.31
2022-11-01T20:44:35.550Z,96243.84
2022-11-01T20:47:03.145Z,96243.66
2022-11-01T20:49:30.578Z,96248.94
2022-11-01T20:52:13.544Z,96252.31
2022-11-01T20:54:46.174Z,96250.22
2022-11-01T20:57:26.977Z,96250.84
2022-11-01T20:59:56.087Z,96257.69
2022-11-01T21:02:23.568Z,96256.44
2022-11-01T21:05:07.387Z,96256.56
2022-11-01T21:07:34.861Z,96247.91
2022-11-01T21:10:27.532Z,96252.84
2022-11-01T21:12:55.289Z,96253.50
2022-11-01T21:15:36.126Z,96255.25
2022-11-01T21:18:12.495Z,96255.88
2022-11-01T21:20:49.490Z,96250.56
2022-11-01T21:23:35.669Z,96255.34
2022-11-01T21:26:21.552Z,96259.03
2022-11-01T21:29:16.385Z,96264.53
2022-11-01T21:31:44.189Z,96253.81
2022-11-01T21:34:12.784Z,96261.47
2022-11-01T21:36:47.025Z,96258.56
2022-11-01T21:39:19.735Z,96257.28
2022-11-01T21:41:50.923Z,96249.28
2022-11-01T21:44:18.908Z,96246.06
2022-11-01T21:46:50.915Z,96255.13
2022-11-01T21:49:32.163Z,96249.03
2022-11-01T21:52:01.616Z,96252.38
2022-11-01T21:54:30.673Z,96258.75
2022-11-01T21:56:58.132Z,96243.00
2022-11-01T21:59:27.462Z,96246.22
2022-11-01T22:01:56.285Z,96242.00
2022-11-01T22:04:28.677Z,96240.41
2022-11-01T22:07:01.799Z,96251.88
2022-11-01T22:09:31.123Z,96252.53
2022-11-01T22:11:59.318Z,96237.44
2022-11-01T22:14:26.894Z,96248.31
2022-11-01T22:16:54.338Z,96239.50
2022-11-01T22:19:21.951Z,96239.81
2022-11-01T22:21:49.385Z,96238.69
2022-11-01T22:24:17.123Z,96231.28
2022-11-01T22:26:44.734Z,96241.50
2022-11-01T22:29:13.242Z,96220.84
2022-11-01T22:31:40.614Z,96233.50
2022-11-01T22:34:08.141Z,96230.91
2022-11-01T22:36:36.558Z,96230.91
2022-11-01T22:39:21.533Z,96236.78
2022-11-01T22:41:49.230Z,96232.13
2022-11-01T22:44:17.982Z,96231.63
2022-11-01T22:46:56.889Z,96230.78
2022-11-01T22:49:38.123Z,96240.03
2022-11-01T22:52:16.039Z,96228.72
2022-11-01T22:54:48.853Z,96224.25
2022-11-01T22:57:24.080Z,96231.56
2022-11-01T22:59:53.489Z,96228.97
2022-11-01T23:02:31.069Z,96231.00
2022-11-01T23:05:24.929Z,96227.59
2022-11-01T23:07:57.736Z,96232.84
2022-11-01T23:10:35.294Z,96229.41
2022-11-01T23:13:27.677Z,96210.94
2022-11-01T23:16:00.172Z,96227.81
2022-11-01T23:18:32.863Z,96227.31
2022-11-01T23:21:03.330Z,96225.72
2022-11-01T23:23:30.869Z,96230.00
2022-11-01T23:26:00.095Z,96230.00
2022-11-01T23:28:27.980Z,96220.91
2022-11-01T23:30:55.477Z,96220.41
2022-11-01T23:33:26.908Z,96224.72
2022-11-01T23:35:56.744Z,96221.00
2022-11-01T23:38:48.837Z,96227.03
2022-11-01T23:41:42.945Z,96229.25
2022-11-01T23:44:18.905Z,96225.03
2022-11-01T23:46:46.301Z,96229.63
2022-11-01T23:49:19.022Z,96227.84
2022-11-01T23:51:46.578Z,96230.88
2022-11-01T23:54:40.921Z,96224.72
2022-11-01T23:57:19.889Z,96231.06
2022-11-01T23:59:48.570Z,96236.50
